Time;durP1;ratioP1;P1;durP2;ratioP2;P2;SDS_P1;SDS_P2;PMS_P1;PMS_P2;Temp;Humidity;BMP_temperature;BMP_pressure;BME280_temperature;BME280_humidity;BME280_pressure;Samples;Min_cycle;Max_cycle;Signal;HPM_P1;HPM_P2
2023/01/29 00:02:09;;;;;;;31.53;25.50;;;5.10;99.90;;;;;;5014700;28;20493;-88
2023/01/29 00:04:36;;;;;;;34.10;27.27;;;5.10;99.90;;;;;;5034235;28;20049;-88
2023/01/29 00:07:02;;;;;;;36.17;27.30;;;5.10;99.90;;;;;;5016704;28;20435;-88
2023/01/29 00:09:28;;;;;;;35.03;26.17;;;5.00;99.90;;;;;;4999608;28;20038;-88
2023/01/29 00:11:54;;;;;;;32.27;25.87;;;5.00;99.90;;;;;;5014426;28;20494;-88
2023/01/29 00:14:20;;;;;;;33.20;26.77;;;5.00;99.90;;;;;;5012156;28;20053;-88
2023/01/29 00:16:46;;;;;;;34.83;28.67;;;4.90;99.90;;;;;;5015278;28;20056;-87
2023/01/29 00:19:12;;;;;;;33.57;27.23;;;5.00;99.90;;;;;;5016575;28;20030;-88
2023/01/29 00:21:38;;;;;;;32.70;27.23;;;4.90;99.90;;;;;;5016218;28;20041;-87
2023/01/29 00:24:05;;;;;;;38.30;29.93;;;4.90;99.90;;;;;;5033997;28;20032;-88
2023/01/29 00:26:31;;;;;;;34.43;28.37;;;4.80;99.90;;;;;;5033205;28;20040;-88
2023/01/29 00:28:59;;;;;;;37.23;29.37;;;4.90;99.90;;;;;;5022984;28;20063;-87
2023/01/29 00:31:25;;;;;;;38.17;30.97;;;4.90;99.90;;;;;;5014075;28;20132;-87
2023/01/29 00:33:51;;;;;;;36.00;29.97;;;4.90;99.90;;;;;;4996848;28;20029;-88
2023/01/29 00:36:18;;;;;;;43.07;32.80;;;4.90;99.90;;;;;;4996535;28;20037;-88
2023/01/29 00:38:53;;;;;;;41.73;33.40;;;4.80;99.90;;;;;;4996318;28;20030;-88
2023/01/29 00:46:49;;;;;;;44.03;32.83;;;4.70;99.90;;;;;;5019918;28;20391;-87
2023/01/29 00:49:15;;;;;;;42.03;33.17;;;4.70;99.90;;;;;;5015214;28;20025;-87
2023/01/29 00:51:41;;;;;;;43.37;32.60;;;4.70;99.90;;;;;;5000837;28;20041;-87
2023/01/29 00:54:07;;;;;;;42.00;31.90;;;4.70;99.90;;;;;;5015563;28;20022;-88
2023/01/29 00:56:34;;;;;;;41.97;32.10;;;4.70;99.90;;;;;;4998949;28;20037;-88
2023/01/29 00:59:01;;;;;;;44.23;32.20;;;4.70;99.90;;;;;;5014177;28;20510;-87
2023/01/29 01:04:11;;;;;;;40.10;30.27;;;4.80;99.90;;;;;;5020177;28;20395;-88
2023/01/29 01:06:38;;;;;;;40.87;30.43;;;4.50;99.90;;;;;;5004408;28;20029;-88
2023/01/29 01:11:50;;;;;;;38.93;29.63;;;4.10;99.90;;;;;;5004973;28;20060;-88
2023/01/29 01:14:19;;;;;;;40.03;30.17;;;4.10;99.90;;;;;;5014267;28;20037;-88
2023/01/29 01:16:46;;;;;;;38.37;29.10;;;4.10;99.90;;;;;;5014217;28;20517;-88
2023/01/29 01:19:13;;;;;;;33.07;26.93;;;4.10;99.90;;;;;;5015662;28;20298;-88
2023/01/29 01:21:39;;;;;;;37.83;29.07;;;4.00;99.90;;;;;;5004042;28;20046;-88
2023/01/29 01:24:05;;;;;;;35.40;28.47;;;3.90;99.90;;;;;;4996997;28;20037;-88
2023/01/29 01:26:31;;;;;;;35.17;28.37;;;4.00;99.90;;;;;;5014805;28;20470;-87
2023/01/29 01:28:58;;;;;;;33.50;27.50;;;4.10;99.90;;;;;;5032399;28;20033;-88
2023/01/29 01:31:24;;;;;;;34.67;28.67;;;4.20;99.90;;;;;;5014070;28;20048;-88
2023/01/29 01:33:50;;;;;;;38.87;27.50;;;4.10;99.90;;;;;;5015244;28;20064;-87
2023/01/29 01:36:17;;;;;;;36.93;27.20;;;4.10;99.90;;;;;;5015009;28;20042;-88
2023/01/29 01:38:43;;;;;;;32.27;27.00;;;4.00;99.90;;;;;;5006904;28;20527;-88
2023/01/29 01:41:14;;;;;;;34.27;27.83;;;3.90;99.90;;;;;;5008484;28;20049;-87
2023/01/29 01:43:54;;;;;;;36.13;27.75;;;3.90;99.90;;;;;;5012892;28;20032;-88
2023/01/29 01:46:21;;;;;;;38.92;28.40;;;3.90;99.90;;;;;;5013889;28;20037;-88
2023/01/29 01:48:50;;;;;;;33.87;27.13;;;3.90;99.90;;;;;;5015207;28;20029;-88
2023/01/29 01:51:16;;;;;;;31.43;25.70;;;3.80;99.90;;;;;;5010780;28;20045;-88
2023/01/29 01:53:48;;;;;;;37.00;27.83;;;3.80;99.90;;;;;;5007887;28;20479;-89
2023/01/29 01:56:37;;;;;;;36.73;27.47;;;3.70;99.90;;;;;;4992853;28;20045;-87
2023/01/29 01:59:04;;;;;;;37.57;27.93;;;3.60;99.90;;;;;;5016244;28;20026;-88
2023/01/29 02:01:30;;;;;;;35.83;26.97;;;3.60;99.90;;;;;;5003985;28;20033;-88
2023/01/29 02:09:45;;;;;;;34.60;26.73;;;3.70;99.90;;;;;;5000066;28;20048;-87
2023/01/29 02:12:12;;;;;;;34.77;26.60;;;3.80;99.90;;;;;;5003013;28;20127;-88
2023/01/29 02:14:39;;;;;;;35.93;27.10;;;3.90;99.90;;;;;;5011695;28;20368;-85
2023/01/29 02:17:06;;;;;;;34.40;26.07;;;3.90;99.90;;;;;;5013672;28;20441;-88
2023/01/29 02:19:47;;;;;;;35.67;27.00;;;3.90;99.90;;;;;;4998192;28;20045;-88
2023/01/29 02:22:41;;;;;;;37.08;27.15;;;3.80;99.90;;;;;;5022210;28;20018;-88
2023/01/29 02:25:28;;;;;;;32.63;26.13;;;3.70;99.90;;;;;;5033959;28;20030;-87
2023/01/29 02:28:13;;;;;;;36.37;24.60;;;3.70;99.90;;;;;;5036637;28;20025;-87
2023/01/29 02:30:40;;;;;;;35.47;26.10;;;3.70;99.90;;;;;;5035416;28;20033;-88
2023/01/29 02:33:15;;;;;;;32.60;25.83;;;3.70;99.90;;;;;;5017786;28;20034;-87
2023/01/29 02:35:49;;;;;;;37.33;26.23;;;3.70;99.90;;;;;;5016034;28;20056;-87
2023/01/29 02:38:23;;;;;;;35.87;26.33;;;3.50;99.90;;;;;;5003107;28;20025;-88
2023/01/29 02:40:56;;;;;;;36.27;26.40;;;3.60;99.90;;;;;;5035727;28;20033;-88
2023/01/29 02:43:35;;;;;;;33.97;27.03;;;3.70;99.90;;;;;;5033607;28;20033;-87
2023/01/29 02:46:16;;;;;;;32.60;26.20;;;3.60;99.90;;;;;;5029382;28;20041;-87
2023/01/29 02:48:54;;;;;;;33.25;25.05;;;3.70;99.90;;;;;;5016299;28;20358;-87
2023/01/29 02:51:34;;;;;;;33.83;25.30;;;3.70;99.90;;;;;;5029053;28;20386;-87
2023/01/29 02:54:20;;;;;;;30.80;25.40;;;3.70;99.90;;;;;;5032942;28;20025;-87
2023/01/29 02:56:57;;;;;;;30.40;24.87;;;3.70;99.90;;;;;;5005620;28;20041;-87
2023/01/29 02:59:32;;;;;;;31.43;23.53;;;3.80;99.90;;;;;;5001714;28;20025;-87
2023/01/29 03:02:05;;;;;;;32.30;24.67;;;3.70;99.90;;;;;;4995713;28;20394;-86
2023/01/29 03:04:33;;;;;;;30.10;24.67;;;3.60;99.90;;;;;;5011434;28;20462;-88
2023/01/29 03:07:05;;;;;;;32.50;24.77;;;3.60;99.90;;;;;;5009946;28;20017;-88
2023/01/29 03:09:40;;;;;;;33.10;25.63;;;3.60;99.90;;;;;;4985912;28;20034;-86
2023/01/29 03:12:27;;;;;;;34.47;24.77;;;3.50;99.90;;;;;;5029139;28;20032;-88
2023/01/29 03:15:12;;;;;;;31.20;25.43;;;3.50;99.90;;;;;;5004934;28;20041;-88
2023/01/29 03:17:45;;;;;;;29.97;25.00;;;3.40;99.90;;;;;;5001599;28;20038;-89
2023/01/29 03:20:15;;;;;;;30.33;23.90;;;3.30;99.90;;;;;;5031828;28;20022;-88
2023/01/29 03:22:42;;;;;;;31.67;23.43;;;3.30;99.90;;;;;;5014700;28;20440;-88
2023/01/29 03:33:38;;;;;;;33.80;24.17;;;3.10;99.90;;;;;;5012174;28;20045;-88
2023/01/29 03:36:38;;;;;;;37.97;25.48;;;3.30;99.90;;;;;;5015688;28;20037;-88
2023/01/29 03:39:08;;;;;;;34.73;24.20;;;3.40;99.90;;;;;;5000250;28;20030;-88
2023/01/29 03:41:37;;;;;;;33.67;24.63;;;3.40;99.90;;;;;;5009865;28;20045;-88
2023/01/29 03:44:18;;;;;;;34.73;25.83;;;3.40;99.90;;;;;;5016885;28;20030;-88
2023/01/29 03:47:11;;;;;;;33.88;24.63;;;3.50;99.90;;;;;;5000036;28;20371;-88
2023/01/29 03:50:16;;;;;;;30.47;24.40;;;3.60;99.90;;;;;;5016131;28;20034;-88
2023/01/29 03:53:05;;;;;;;32.97;24.20;;;3.80;99.90;;;;;;5018609;28;20509;-87
2023/01/29 03:55:40;;;;;;;33.03;24.50;;;3.80;99.90;;;;;;5017301;28;20037;-88
2023/01/29 03:58:31;;;;;;;36.70;24.37;;;3.60;99.90;;;;;;5016221;28;20092;-88
2023/01/29 04:00:58;;;;;;;;;;;3.80;99.90;;;;;;5016722;28;20045;-87
2023/01/29 04:03:31;;;;;;;31.97;23.63;;;3.80;99.90;;;;;;5016191;28;20153;-88
2023/01/29 04:06:08;;;;;;;32.60;24.80;;;3.80;99.90;;;;;;5015357;28;20044;-88
2023/01/29 04:08:52;;;;;;;32.83;23.87;;;3.80;99.90;;;;;;5017081;28;20021;-86
2023/01/29 04:11:19;;;;;;;34.57;24.80;;;4.00;99.90;;;;;;5018201;28;20033;-85
2023/01/29 04:13:46;;;;;;;29.37;24.80;;;4.10;99.90;;;;;;5011393;28;20042;-87
2023/01/29 04:16:16;;;;;;;34.60;24.30;;;4.10;99.90;;;;;;5012823;28;20042;-86
2023/01/29 04:18:45;;;;;;;30.80;23.43;;;3.90;99.90;;;;;;5009273;28;20033;-86
2023/01/29 04:21:11;;;;;;;33.77;24.17;;;3.90;99.90;;;;;;5023666;28;20029;-86
2023/01/29 04:23:37;;;;;;;30.93;23.90;;;4.00;99.90;;;;;;5015922;28;20032;-86
2023/01/29 04:26:30;;;;;;;32.17;25.27;;;3.90;99.90;;;;;;4999752;28;20041;-86
2023/01/29 04:29:02;;;;;;;32.57;24.43;;;4.00;99.90;;;;;;5016432;28;20044;-87
2023/01/29 04:31:33;;;;;;;31.53;25.00;;;4.00;99.90;;;;;;5021687;28;20030;-88
2023/01/29 04:34:28;;;;;;;34.67;25.58;;;4.00;99.90;;;;;;5013529;28;20053;-89
2023/01/29 04:37:06;;;;;;;29.77;23.03;;;4.10;99.90;;;;;;5015692;28;20480;-88
2023/01/29 04:39:55;;;;;;;33.57;24.77;;;4.00;99.90;;;;;;5002648;28;20041;-92
2023/01/29 04:42:46;;;;;;;32.20;24.53;;;3.90;99.90;;;;;;5008461;28;20033;-90
2023/01/29 04:45:15;;;;;;;33.03;24.58;;;3.70;99.90;;;;;;5015513;28;20030;-88
2023/01/29 04:48:03;;;;;;;33.30;25.03;;;3.70;99.90;;;;;;5017888;28;20040;-88
2023/01/29 04:50:29;;;;;;;31.30;23.57;;;3.70;99.90;;;;;;5016838;28;20033;-89
2023/01/29 04:53:12;;;;;;;30.93;24.73;;;3.90;99.90;;;;;;5031261;28;20486;-89
2023/01/29 04:55:49;;;;;;;31.23;24.40;;;3.90;99.90;;;;;;5016344;28;20037;-84
2023/01/29 04:58:39;;;;;;;31.27;24.03;;;3.80;99.90;;;;;;5002912;28;20026;-88
2023/01/29 05:01:06;;;;;;;30.50;23.87;;;3.80;99.90;;;;;;5007656;28;20041;-87
2023/01/29 05:03:32;;;;;;;34.20;25.27;;;3.60;99.90;;;;;;5024267;28;20048;-88
2023/01/29 05:05:59;;;;;;;32.90;25.47;;;3.70;99.90;;;;;;5031057;28;20033;-85
2023/01/29 05:08:26;;;;;;;30.50;24.40;;;3.80;99.90;;;;;;5015064;28;20037;-87
2023/01/29 05:10:52;;;;;;;32.20;24.00;;;3.90;99.90;;;;;;5014381;28;20037;-87
2023/01/29 05:13:19;;;;;;;33.37;25.40;;;4.00;99.90;;;;;;5014948;28;20030;-88
2023/01/29 05:16:11;;;;;;;29.30;24.03;;;4.00;99.90;;;;;;5013395;28;20041;-87
2023/01/29 05:18:37;;;;;;;31.43;22.17;;;4.00;99.90;;;;;;5013984;28;20053;-87
2023/01/29 05:21:05;;;;;;;32.93;24.13;;;3.80;99.90;;;;;;5021446;28;20045;-87
2023/01/29 05:23:31;;;;;;;30.13;24.00;;;3.60;99.90;;;;;;5015263;28;20040;-87
2023/01/29 05:25:57;;;;;;;35.13;26.37;;;3.60;99.90;;;;;;4998330;28;20041;-87
2023/01/29 05:28:23;;;;;;;32.03;24.47;;;3.50;99.90;;;;;;5015127;28;20049;-87
2023/01/29 05:30:53;;;;;;;31.03;24.47;;;3.50;99.90;;;;;;5013663;28;20032;-87
2023/01/29 05:33:24;;;;;;;31.48;24.58;;;3.50;99.90;;;;;;5014635;28;20025;-87
2023/01/29 05:35:50;;;;;;;33.85;25.35;;;3.60;99.90;;;;;;5014989;28;20068;-87
2023/01/29 05:38:17;;;;;;;30.00;24.70;;;3.70;99.90;;;;;;5014678;28;20030;-87
2023/01/29 05:40:43;;;;;;;34.03;25.53;;;3.80;99.90;;;;;;5015318;28;20037;-87
2023/01/29 05:43:16;;;;;;;30.63;24.60;;;3.90;99.90;;;;;;5014967;28;20029;-87
2023/01/29 05:45:42;;;;;;;33.60;25.13;;;4.00;99.90;;;;;;5030607;28;20037;-88
2023/01/29 05:48:08;;;;;;;33.83;26.07;;;4.20;99.90;;;;;;5014458;28;20036;-87
2023/01/29 05:50:35;;;;;;;36.87;26.83;;;4.20;99.90;;;;;;5014897;28;20026;-86
2023/01/29 05:53:01;;;;;;;48.10;30.00;;;4.20;99.90;;;;;;5015023;28;20032;-87
2023/01/29 05:55:30;;;;;;;40.67;26.80;;;4.30;99.90;;;;;;5014933;28;20041;-88
2023/01/29 05:57:56;;;;;;;42.27;27.67;;;4.20;99.90;;;;;;5015151;28;20493;-86
2023/01/29 06:00:22;;;;;;;36.97;25.27;;;4.20;99.90;;;;;;5014706;28;20041;-87
2023/01/29 06:02:48;;;;;;;37.67;26.50;;;4.20;99.90;;;;;;4993516;28;20038;-87
2023/01/29 06:05:15;;;;;;;38.40;26.80;;;4.20;99.90;;;;;;4983185;28;20036;-87
2023/01/29 06:07:44;;;;;;;35.93;26.27;;;4.20;99.90;;;;;;5009070;28;20030;-87
2023/01/29 06:10:12;;;;;;;35.87;26.00;;;4.10;99.90;;;;;;5016982;28;20033;-87
2023/01/29 06:12:39;;;;;;;35.33;27.07;;;4.10;99.90;;;;;;4982926;28;20042;-87
2023/01/29 06:15:05;;;;;;;40.57;28.77;;;4.10;99.90;;;;;;4982273;28;20380;-87
2023/01/29 06:17:31;;;;;;;42.67;30.53;;;4.10;99.90;;;;;;5023094;28;20481;-87
2023/01/29 06:19:57;;;;;;;43.87;29.03;;;4.00;99.90;;;;;;5018905;28;20032;-87
2023/01/29 06:22:23;;;;;;;38.30;27.03;;;4.00;99.90;;;;;;5022549;28;20391;-88
2023/01/29 06:24:49;;;;;;;36.10;26.13;;;4.00;99.90;;;;;;5015052;28;20443;-88
2023/01/29 06:27:16;;;;;;;34.70;25.70;;;4.00;99.90;;;;;;4999023;28;20038;-87
2023/01/29 06:29:42;;;;;;;34.80;24.50;;;4.00;99.90;;;;;;5016150;28;20034;-85
2023/01/29 06:32:08;;;;;;;38.27;27.07;;;3.90;99.90;;;;;;5005871;28;20048;-85
2023/01/29 06:34:34;;;;;;;38.90;26.80;;;3.80;99.90;;;;;;5033137;28;20447;-87
2023/01/29 06:37:00;;;;;;;39.93;27.53;;;3.80;99.90;;;;;;5006819;28;20057;-87
2023/01/29 06:39:26;;;;;;;34.53;24.43;;;3.80;99.90;;;;;;5028869;28;20028;-87
2023/01/29 06:41:52;;;;;;;37.70;27.53;;;3.80;99.90;;;;;;4982596;28;20049;-87
2023/01/29 06:44:19;;;;;;;36.43;27.00;;;3.80;99.90;;;;;;4999046;28;20479;-87
2023/01/29 06:46:45;;;;;;;35.27;24.97;;;3.70;99.90;;;;;;5004292;28;20037;-90
2023/01/29 06:49:11;;;;;;;32.50;24.83;;;3.70;99.90;;;;;;5015642;28;20049;-90
2023/01/29 06:51:37;;;;;;;34.17;25.60;;;3.60;99.90;;;;;;4999838;28;20045;-87
2023/01/29 06:54:03;;;;;;;35.83;24.90;;;3.60;99.90;;;;;;5025732;28;20038;-87
2023/01/29 06:56:29;;;;;;;35.37;24.20;;;3.50;99.90;;;;;;5017955;28;20044;-88
2023/01/29 06:58:55;;;;;;;33.53;25.37;;;3.50;99.90;;;;;;5033239;28;20037;-87
2023/01/29 07:01:21;;;;;;;31.17;24.30;;;3.50;99.90;;;;;;5034737;28;20041;-88
2023/01/29 07:03:51;;;;;;;32.40;24.53;;;3.50;99.90;;;;;;5016923;28;20402;-87
2023/01/29 07:06:17;;;;;;;37.73;24.43;;;3.50;99.90;;;;;;5018185;28;20034;-87
2023/01/29 07:08:43;;;;;;;30.13;23.63;;;3.40;99.90;;;;;;5017600;28;20037;-88
2023/01/29 07:11:10;;;;;;;30.23;23.47;;;3.40;99.90;;;;;;5034509;28;20032;-88
2023/01/29 07:13:36;;;;;;;30.60;23.10;;;3.40;99.90;;;;;;5018077;28;20029;-88
2023/01/29 07:16:03;;;;;;;59.10;25.73;;;3.30;99.90;;;;;;5017086;28;20041;-88
2023/01/29 07:18:29;;;;;;;35.93;25.03;;;3.30;99.90;;;;;;5017230;28;20490;-88
2023/01/29 07:20:55;;;;;;;35.83;23.37;;;3.30;99.90;;;;;;5013858;28;20049;-88
2023/01/29 07:23:21;;;;;;;33.37;23.93;;;3.30;99.90;;;;;;5014587;28;20034;-88
2023/01/29 07:25:48;;;;;;;37.60;25.73;;;3.20;99.90;;;;;;5014854;28;20030;-88
2023/01/29 07:28:21;;;;;;;34.33;25.20;;;3.20;99.90;;;;;;4998130;28;20506;-88
2023/01/29 07:30:47;;;;;;;34.30;24.57;;;3.10;99.90;;;;;;5016195;28;20045;-88
2023/01/29 07:33:14;;;;;;;31.37;24.67;;;3.10;99.90;;;;;;5034820;28;20029;-88
2023/01/29 07:35:41;;;;;;;37.33;25.37;;;3.00;99.90;;;;;;5017570;28;20056;-88
2023/01/29 07:38:07;;;;;;;37.73;26.87;;;3.00;99.90;;;;;;5016838;28;20239;-87
2023/01/29 07:40:34;;;;;;;36.07;26.20;;;3.00;99.90;;;;;;5017203;28;20036;-83
2023/01/29 07:43:01;;;;;;;39.63;27.07;;;3.00;99.90;;;;;;5016998;28;20063;-83
2023/01/29 07:45:27;;;;;;;38.20;25.77;;;3.00;99.90;;;;;;5013515;28;20401;-83
2023/01/29 07:47:54;;;;;;;36.67;25.87;;;3.00;99.90;;;;;;5008530;28;20025;-85
2023/01/29 07:50:21;;;;;;;38.83;26.03;;;3.10;99.90;;;;;;5016652;28;20028;-84
2023/01/29 07:52:47;;;;;;;36.20;26.30;;;3.10;99.90;;;;;;4999225;28;20061;-84
2023/01/29 07:55:14;;;;;;;35.03;25.50;;;3.10;99.90;;;;;;5016223;28;20040;-83
2023/01/29 07:57:40;;;;;;;39.63;26.87;;;3.10;99.90;;;;;;4999942;28;20033;-84
2023/01/29 08:00:09;;;;;;;37.87;25.20;;;3.10;99.90;;;;;;5016496;28;20030;-95
2023/01/29 08:02:35;;;;;;;34.50;25.63;;;3.10;99.90;;;;;;5015548;28;20029;-85
2023/01/29 08:05:01;;;;;;;39.57;25.67;;;3.10;99.90;;;;;;5031273;28;20061;-84
2023/01/29 08:07:27;;;;;;;36.43;26.63;;;3.20;99.90;;;;;;5012457;28;20028;-83
2023/01/29 08:09:53;;;;;;;39.83;27.00;;;3.10;99.90;;;;;;5030576;28;20037;-85
2023/01/29 08:12:19;;;;;;;42.37;28.17;;;3.10;99.90;;;;;;5023036;28;20049;-84
2023/01/29 08:14:45;;;;;;;40.77;26.83;;;3.00;99.90;;;;;;5001461;28;20033;-86
2023/01/29 08:17:12;;;;;;;38.97;26.53;;;3.10;99.90;;;;;;5011947;28;20079;-86
2023/01/29 08:19:38;;;;;;;36.00;26.47;;;3.10;99.90;;;;;;5029124;28;20037;-84
2023/01/29 08:22:04;;;;;;;34.93;26.13;;;3.20;99.90;;;;;;5017792;28;20041;-84
2023/01/29 08:24:30;;;;;;;38.43;26.33;;;3.20;99.90;;;;;;4993555;28;20038;-86
2023/01/29 08:26:56;;;;;;;39.50;27.77;;;3.20;99.90;;;;;;5014488;28;20044;-85
2023/01/29 08:29:23;;;;;;;40.33;27.73;;;3.10;99.90;;;;;;5031726;28;20029;-84
2023/01/29 08:31:49;;;;;;;43.13;28.53;;;3.10;99.90;;;;;;4979718;28;20042;-84
2023/01/29 08:34:15;;;;;;;38.80;27.77;;;2.90;99.90;;;;;;5010850;28;20463;-84
2023/01/29 08:36:41;;;;;;;36.37;25.27;;;2.80;99.90;;;;;;5015652;28;20049;-84
2023/01/29 08:39:07;;;;;;;39.30;27.17;;;2.70;99.90;;;;;;5013529;28;20402;-87
2023/01/29 08:41:33;;;;;;;39.13;27.77;;;2.50;99.90;;;;;;5011339;28;21159;-84
2023/01/29 08:44:01;;;;;;;41.13;27.73;;;2.40;99.90;;;;;;5013374;28;20034;-85
2023/01/29 08:46:27;;;;;;;40.07;27.53;;;2.30;99.90;;;;;;5014471;28;20029;-86
2023/01/29 08:48:54;;;;;;;44.00;29.93;;;2.30;99.90;;;;;;5013744;28;20029;-88
2023/01/29 08:51:20;;;;;;;46.13;31.07;;;2.30;99.90;;;;;;5020774;28;20025;-85
2023/01/29 08:53:46;;;;;;;49.30;33.53;;;2.50;99.90;;;;;;5031284;28;20371;-87
2023/01/29 08:56:12;;;;;;;47.50;31.60;;;2.70;99.90;;;;;;5014488;28;20042;-86
2023/01/29 08:58:38;;;;;;;45.73;31.07;;;2.90;99.90;;;;;;5029115;28;20053;-85
2023/01/29 09:01:09;;;;;;;44.13;30.57;;;3.00;99.90;;;;;;5015713;28;20038;-84
2023/01/29 09:03:35;;;;;;;45.28;29.75;;;3.00;99.90;;;;;;5005182;28;20368;-85
2023/01/29 09:06:01;;;;;;;46.13;31.07;;;3.10;99.90;;;;;;4996948;28;20034;-84
2023/01/29 09:08:27;;;;;;;41.40;29.03;;;3.30;99.90;;;;;;5014428;28;20044;-85
2023/01/29 09:10:54;;;;;;;50.67;36.30;;;3.20;99.90;;;;;;5032229;28;20025;-86
2023/01/29 09:13:20;;;;;;;42.33;30.00;;;3.10;99.90;;;;;;5032130;28;20073;-84
2023/01/29 09:15:46;;;;;;;41.93;29.50;;;3.20;99.90;;;;;;5029300;28;20050;-85
2023/01/29 09:18:12;;;;;;;46.80;32.07;;;3.30;99.90;;;;;;5013716;28;20046;-84
2023/01/29 09:20:38;;;;;;;49.07;33.93;;;3.40;99.90;;;;;;5014650;28;20056;-84
2023/01/29 09:23:06;;;;;;;41.80;30.27;;;3.40;99.90;;;;;;5022950;28;20045;-84
2023/01/29 09:25:32;;;;;;;38.77;30.80;;;3.80;99.90;;;;;;5023544;28;20046;-84
2023/01/29 09:27:58;;;;;;;42.30;32.50;;;4.20;99.90;;;;;;5034471;28;20407;-84
2023/01/29 09:30:24;;;;;;;42.20;29.43;;;4.80;99.90;;;;;;4996663;28;20037;-83
2023/01/29 09:32:50;;;;;;;42.13;29.23;;;5.40;99.90;;;;;;5030536;28;20021;-84
2023/01/29 09:35:16;;;;;;;36.27;29.57;;;5.60;99.90;;;;;;5012743;28;20479;-84
2023/01/29 09:37:45;;;;;;;39.30;28.83;;;5.70;99.90;;;;;;5011596;28;20038;-85
2023/01/29 09:40:50;;;;;;;39.83;32.40;;;5.30;99.90;;;;;;5012215;28;20038;-85
2023/01/29 09:43:39;;;;;;;36.13;30.07;;;5.50;99.90;;;;;;5027496;28;20052;-85
2023/01/29 09:46:16;;;;;;;36.70;28.97;;;6.00;99.90;;;;;;5015896;28;20040;-86
2023/01/29 09:48:42;;;;;;;39.37;31.63;;;6.00;99.90;;;;;;5010185;28;20037;-84
2023/01/29 09:51:39;;;;;;;34.50;27.90;;;6.30;99.90;;;;;;5014048;28;20033;-83
2023/01/29 09:54:06;;;;;;;33.10;27.00;;;6.00;99.90;;;;;;4998189;28;20022;-83
2023/01/29 09:56:32;;;;;;;32.77;27.93;;;6.00;99.90;;;;;;5011690;28;20045;-84
2023/01/29 09:58:58;;;;;;;30.47;26.33;;;6.50;99.90;;;;;;5019795;28;20030;-85
2023/01/29 10:01:49;;;;;;;33.50;28.10;;;6.60;99.90;;;;;;5013545;28;20041;-84
2023/01/29 10:04:57;;;;;;;31.02;26.65;;;6.50;99.90;;;;;;5031784;28;20041;-85
2023/01/29 10:07:42;;;;;;;39.83;29.47;;;6.70;99.90;;;;;;5013366;28;20470;-84
2023/01/29 10:10:26;;;;;;;37.17;29.50;;;6.30;99.90;;;;;;5009909;28;20033;-83
2023/01/29 10:13:14;;;;;;;32.17;26.37;;;6.40;99.90;;;;;;5012150;28;20053;-85
2023/01/29 10:15:58;;;;;;;31.80;27.23;;;6.20;99.90;;;;;;4997918;28;20030;-85
2023/01/29 10:18:36;;;;;;;53.27;35.53;;;5.90;99.90;;;;;;5012572;28;20053;-85
2023/01/29 10:21:33;;;;;;;39.33;28.20;;;5.80;99.90;;;;;;5024577;28;20040;-85
2023/01/29 10:24:15;;;;;;;35.47;28.47;;;5.80;99.90;;;;;;5029619;28;20042;-85
2023/01/29 10:26:41;;;;;;;32.53;26.40;;;5.90;99.90;;;;;;5028731;28;20362;-87
2023/01/29 10:29:09;;;;;;;32.57;27.47;;;6.10;99.90;;;;;;4991490;28;20041;-85
2023/01/29 10:31:38;;;;;;;31.70;27.30;;;6.40;99.90;;;;;;4997228;28;20049;-87
2023/01/29 10:34:12;;;;;;;27.27;24.40;;;6.50;99.90;;;;;;5012876;28;20378;-86
2023/01/29 10:36:46;;;;;;;28.40;24.50;;;6.40;99.90;;;;;;4999312;28;20057;-86
2023/01/29 10:39:19;;;;;;;28.23;25.23;;;6.20;99.90;;;;;;5012430;28;20029;-86
2023/01/29 10:42:13;;;;;;;28.70;25.63;;;6.00;99.90;;;;;;4980546;28;20045;-85
2023/01/29 10:45:04;;;;;;;27.37;24.37;;;6.10;99.90;;;;;;5010087;28;20045;-85
2023/01/29 10:47:46;;;;;;;30.37;25.23;;;5.90;99.90;;;;;;5007390;28;20061;-86
2023/01/29 10:50:15;;;;;;;29.27;26.13;;;5.70;99.90;;;;;;5015581;28;20036;-89
2023/01/29 10:52:53;;;;;;;30.17;26.97;;;5.60;99.90;;;;;;5021986;28;20037;-88
2023/01/29 10:55:24;;;;;;;28.73;25.63;;;5.90;99.90;;;;;;5016057;28;20033;-89
2023/01/29 10:57:56;;;;;;;32.10;27.70;;;6.20;99.90;;;;;;5029798;28;20793;-90
2023/01/29 11:00:24;;;;;;;29.70;26.50;;;6.50;99.90;;;;;;5024997;28;20045;-83
2023/01/29 11:02:50;;;;;;;32.93;27.07;;;6.80;99.90;;;;;;4996304;28;20451;-90
2023/01/29 11:05:35;;;;;;;30.63;27.37;;;6.70;99.90;;;;;;4977826;28;20419;-90
2023/01/29 11:08:22;;;;;;;28.90;25.37;;;6.50;99.90;;;;;;5009456;28;20374;-90
2023/01/29 11:11:10;;;;;;;30.53;26.57;;;6.50;99.90;;;;;;5011651;28;20478;-88
2023/01/29 11:13:46;;;;;;;30.83;27.57;;;6.50;99.90;;;;;;5011064;28;20040;-89
2023/01/29 11:16:12;;;;;;;30.33;25.80;;;6.90;99.90;;;;;;5024229;28;20491;-87
2023/01/29 11:19:11;;;;;;;30.27;27.17;;;7.10;99.90;;;;;;5013207;28;21410;-88
2023/01/29 11:21:56;;;;;;;30.50;27.20;;;6.80;99.90;;;;;;4976025;28;20074;-85
2023/01/29 11:24:22;;;;;;;31.77;25.23;;;6.80;99.90;;;;;;4976376;28;20491;-87
2023/01/29 11:26:49;;;;;;;32.40;27.50;;;6.60;99.90;;;;;;4976160;28;20041;-85
2023/01/29 11:29:32;;;;;;;28.00;24.33;;;6.40;99.90;;;;;;4957031;28;20046;-82
2023/01/29 11:31:58;;;;;;;26.80;24.10;;;6.40;99.90;;;;;;4958117;28;20046;-91
2023/01/29 11:34:26;;;;;;;26.97;24.07;;;6.40;99.90;;;;;;4977311;28;20038;-89
2023/01/29 11:36:56;;;;;;;23.73;21.33;;;6.70;99.90;;;;;;4976524;28;20045;-87
2023/01/29 11:39:23;;;;;;;21.97;19.90;;;6.90;99.90;;;;;;4974237;28;20134;-88
2023/01/29 11:41:56;;;;;;;21.10;19.10;;;6.70;99.90;;;;;;4976977;28;20034;-88
2023/01/29 11:44:33;;;;;;;24.57;22.03;;;6.40;99.90;;;;;;4976847;28;20038;-90
2023/01/29 11:47:19;;;;;;;17.43;16.10;;;6.50;99.90;;;;;;4976832;28;20146;-92
2023/01/29 11:49:55;;;;;;;20.00;18.13;;;6.60;99.90;;;;;;4975270;28;20036;-88
2023/01/29 11:52:36;;;;;;;20.07;18.00;;;6.50;99.90;;;;;;4993175;28;20098;-89
2023/01/29 11:55:14;;;;;;;17.83;16.38;;;6.40;99.90;;;;;;4974967;28;20038;-86
2023/01/29 11:57:41;;;;;;;20.60;18.70;;;6.50;99.90;;;;;;4983917;28;20509;-87
2023/01/29 12:00:21;;;;;;;20.77;18.87;;;6.40;99.90;;;;;;5002391;28;20022;-89
2023/01/29 12:03:16;;;;;;;17.77;16.17;;;6.50;99.90;;;;;;5011332;28;20376;-88
2023/01/29 12:05:55;;;;;;;20.80;18.90;;;6.60;99.90;;;;;;5001538;28;20049;-86
2023/01/29 12:08:22;;;;;;;21.13;19.20;;;6.70;99.90;;;;;;5015182;28;20112;-92
2023/01/29 12:10:48;;;;;;;23.03;20.93;;;6.70;99.90;;;;;;5041763;28;20202;-92
2023/01/29 12:13:18;;;;;;;24.30;22.07;;;7.10;99.90;;;;;;4998634;28;20048;-91
2023/01/29 12:15:45;;;;;;;22.60;20.20;;;7.10;99.90;;;;;;5012766;28;20034;-88
2023/01/29 12:18:31;;;;;;;23.70;21.40;;;7.00;99.90;;;;;;5013943;28;20304;-92
2023/01/29 12:21:03;;;;;;;23.58;21.30;;;7.20;99.90;;;;;;4998861;28;20029;-91
2023/01/29 12:23:44;;;;;;;23.90;21.63;;;7.50;99.90;;;;;;5016057;28;20474;-89
2023/01/29 12:26:16;;;;;;;22.20;20.10;;;7.70;99.90;;;;;;5019037;28;20033;-89
2023/01/29 12:29:04;;;;;;;23.88;21.67;;;7.60;99.90;;;;;;4998246;28;20380;-90
2023/01/29 12:31:45;;;;;;;23.77;21.60;;;7.40;99.90;;;;;;5020208;28;20034;-90
2023/01/29 12:34:51;;;;;;;22.20;20.10;;;7.30;99.90;;;;;;4997919;28;20510;-88
2023/01/29 12:37:21;;;;;;;25.23;22.93;;;7.20;99.90;;;;;;4969453;28;20054;-87
2023/01/29 12:39:48;;;;;;;23.23;21.13;;;7.30;99.90;;;;;;4968084;28;20031;-90
2023/01/29 12:42:21;;;;;;;25.60;23.30;;;7.40;99.90;;;;;;4954730;28;20043;-89
2023/01/29 12:45:05;;;;;;;21.48;19.48;;;7.50;99.90;;;;;;4962846;28;20528;-91
2023/01/29 12:47:37;;;;;;;23.77;21.53;;;7.50;99.90;;;;;;4937146;28;20031;-91
2023/01/29 12:50:20;;;;;;;23.17;21.13;;;7.40;99.90;;;;;;4939380;28;20504;-89
2023/01/29 12:53:11;;;;;;;24.98;22.48;;;7.30;99.90;;;;;;4948486;28;20046;-88
2023/01/29 12:55:41;;;;;;;;;;;7.50;99.90;;;;;;4968766;28;20066;-89
2023/01/29 12:58:15;;;;;;;22.70;20.70;;;7.40;99.90;;;;;;4952577;28;19919;-90
2023/01/29 13:00:45;;;;;;;24.40;22.23;;;7.30;99.90;;;;;;4935171;28;20039;-91
2023/01/29 13:03:22;;;;;;;26.25;24.00;;;7.20;99.90;;;;;;4936766;28;20039;-92
2023/01/29 13:06:09;;;;;;;24.07;22.00;;;7.80;99.90;;;;;;4940846;28;20506;-89
2023/01/29 13:08:52;;;;;;;23.90;21.80;;;8.50;99.90;;;;;;4970876;28;20046;-88
2023/01/29 13:11:25;;;;;;;23.88;21.98;;;8.10;99.90;;;;;;4968870;28;20559;-87
2023/01/29 13:13:53;;;;;;;23.65;21.75;;;8.40;99.90;;;;;;4977572;28;20430;-86
2023/01/29 13:16:22;;;;;;;24.02;21.90;;;8.60;99.90;;;;;;4995144;28;20065;-88
2023/01/29 13:19:02;;;;;;;22.60;20.80;;;8.50;99.90;;;;;;5007417;28;20056;-90
2023/01/29 13:21:39;;;;;;;24.02;21.83;;;8.30;99.90;;;;;;5019149;28;20135;-90
2023/01/29 13:24:17;;;;;;;23.90;21.90;;;8.60;99.90;;;;;;4973176;28;20402;-88
2023/01/29 13:26:46;;;;;;;24.10;22.05;;;8.50;99.90;;;;;;5031085;28;20048;-88
2023/01/29 13:29:23;;;;;;;23.42;21.52;;;8.20;99.90;;;;;;5011526;28;20049;-89